sensor_id;sensor_type;location;lat;lon;timestamp;P1;durP1;ratioP1;P2;durP2;ratioP2
11247;SDS011;5681;53.316;13.950;2023-06-26T00:00:59;9.25;;;5.07;;
11247;SDS011;5681;53.316;13.950;2023-06-26T00:03:26;6.78;;;5.13;;
11247;SDS011;5681;53.316;13.950;2023-06-26T00:05:53;6.15;;;4.80;;
11247;SDS011;5681;53.316;13.950;2023-06-26T00:08:25;6.07;;;4.55;;
11247;SDS011;5681;53.316;13.950;2023-06-26T00:10:52;4.90;;;4.40;;
11247;SDS011;5681;53.316;13.950;2023-06-26T00:13:18;6.00;;;4.75;;
11247;SDS011;5681;53.316;13.950;2023-06-26T00:15:46;7.47;;;4.20;;
11247;SDS011;5681;53.316;13.950;2023-06-26T00:18:12;5.30;;;4.80;;
11247;SDS011;5681;53.316;13.950;2023-06-26T00:20:38;8.05;;;4.45;;
11247;SDS011;5681;53.316;13.950;2023-06-26T00:23:05;5.63;;;4.35;;
11247;SDS011;5681;53.316;13.950;2023-06-26T00:25:32;5.90;;;4.40;;
11247;SDS011;5681;53.316;13.950;2023-06-26T00:27:58;6.20;;;4.93;;
11247;SDS011;5681;53.316;13.950;2023-06-26T00:30:25;5.10;;;4.60;;
11247;SDS011;5681;53.316;13.950;2023-06-26T00:32:52;5.85;;;4.70;;
11247;SDS011;5681;53.316;13.950;2023-06-26T00:35:19;5.30;;;4.80;;
11247;SDS011;5681;53.316;13.950;2023-06-26T00:37:45;5.82;;;4.82;;
11247;SDS011;5681;53.316;13.950;2023-06-26T00:40:12;6.15;;;5.00;;
11247;SDS011;5681;53.316;13.950;2023-06-26T00:42:38;5.63;;;4.78;;
11247;SDS011;5681;53.316;13.950;2023-06-26T00:45:05;7.95;;;4.75;;
11247;SDS011;5681;53.316;13.950;2023-06-26T00:47:32;7.97;;;4.65;;
11247;SDS011;5681;53.316;13.950;2023-06-26T00:49:59;5.85;;;4.68;;
11247;SDS011;5681;53.316;13.950;2023-06-26T00:52:26;5.53;;;4.30;;
11247;SDS011;5681;53.316;13.950;2023-06-26T00:54:52;5.10;;;4.60;;
11247;SDS011;5681;53.316;13.950;2023-06-26T00:57:19;5.88;;;4.93;;
11247;SDS011;5681;53.316;13.950;2023-06-26T00:59:45;10.07;;;4.90;;
11247;SDS011;5681;53.316;13.950;2023-06-26T01:02:11;6.30;;;4.70;;
11247;SDS011;5681;53.316;13.950;2023-06-26T01:04:44;10.48;;;5.28;;
11247;SDS011;5681;53.316;13.950;2023-06-26T01:07:13;5.53;;;4.72;;
11247;SDS011;5681;53.316;13.950;2023-06-26T01:09:40;5.95;;;5.05;;
11247;SDS011;5681;53.316;13.950;2023-06-26T01:12:07;5.20;;;4.70;;
11247;SDS011;5681;53.316;13.950;2023-06-26T01:14:34;8.18;;;4.90;;
11247;SDS011;5681;53.316;13.950;2023-06-26T01:17:01;6.40;;;5.05;;
11247;SDS011;5681;53.316;13.950;2023-06-26T01:19:28;7.80;;;5.13;;
11247;SDS011;5681;53.316;13.950;2023-06-26T01:21:56;7.97;;;5.65;;
11247;SDS011;5681;53.316;13.950;2023-06-26T01:24:30;8.68;;;5.10;;
11247;SDS011;5681;53.316;13.950;2023-06-26T01:26:59;7.13;;;5.22;;
11247;SDS011;5681;53.316;13.950;2023-06-26T01:29:27;10.88;;;5.70;;
11247;SDS011;5681;53.316;13.950;2023-06-26T01:31:54;7.45;;;5.50;;
11247;SDS011;5681;53.316;13.950;2023-06-26T01:34:21;7.90;;;5.90;;
11247;SDS011;5681;53.316;13.950;2023-06-26T01:36:47;6.88;;;5.85;;
11247;SDS011;5681;53.316;13.950;2023-06-26T01:39:15;8.05;;;5.75;;
11247;SDS011;5681;53.316;13.950;2023-06-26T01:41:42;7.55;;;6.13;;
11247;SDS011;5681;53.316;13.950;2023-06-26T01:44:14;7.18;;;6.28;;
11247;SDS011;5681;53.316;13.950;2023-06-26T01:46:47;8.00;;;6.00;;
11247;SDS011;5681;53.316;13.950;2023-06-26T01:49:20;6.18;;;5.22;;
11247;SDS011;5681;53.316;13.950;2023-06-26T01:51:55;9.85;;;6.03;;
11247;SDS011;5681;53.316;13.950;2023-06-26T01:54:24;7.75;;;5.88;;
11247;SDS011;5681;53.316;13.950;2023-06-26T01:56:52;6.80;;;5.80;;
11247;SDS011;5681;53.316;13.950;2023-06-26T01:59:21;8.07;;;5.80;;
11247;SDS011;5681;53.316;13.950;2023-06-26T02:01:48;6.20;;;5.60;;
11247;SDS011;5681;53.316;13.950;2023-06-26T02:04:14;6.80;;;5.25;;
11247;SDS011;5681;53.316;13.950;2023-06-26T02:06:40;6.13;;;5.00;;
11247;SDS011;5681;53.316;13.950;2023-06-26T02:09:07;7.28;;;5.60;;
11247;SDS011;5681;53.316;13.950;2023-06-26T02:11:33;6.38;;;5.28;;
11247;SDS011;5681;53.316;13.950;2023-06-26T02:14:00;5.47;;;4.63;;
11247;SDS011;5681;53.316;13.950;2023-06-26T02:16:27;7.82;;;5.13;;
11247;SDS011;5681;53.316;13.950;2023-06-26T02:18:54;7.40;;;5.40;;
11247;SDS011;5681;53.316;13.950;2023-06-26T02:21:22;6.75;;;5.00;;
11247;SDS011;5681;53.316;13.950;2023-06-26T02:23:49;6.07;;;5.50;;
11247;SDS011;5681;53.316;13.950;2023-06-26T02:26:15;8.50;;;4.82;;
11247;SDS011;5681;53.316;13.950;2023-06-26T02:28:41;7.70;;;5.13;;
11247;SDS011;5681;53.316;13.950;2023-06-26T02:31:08;7.80;;;5.25;;
11247;SDS011;5681;53.316;13.950;2023-06-26T02:33:35;5.15;;;4.70;;
11247;SDS011;5681;53.316;13.950;2023-06-26T02:36:02;8.18;;;5.32;;
11247;SDS011;5681;53.316;13.950;2023-06-26T02:38:28;8.07;;;4.97;;
11247;SDS011;5681;53.316;13.950;2023-06-26T02:40:55;6.20;;;5.60;;
11247;SDS011;5681;53.316;13.950;2023-06-26T02:43:21;7.43;;;5.63;;
11247;SDS011;5681;53.316;13.950;2023-06-26T02:45:47;5.93;;;5.30;;
11247;SDS011;5681;53.316;13.950;2023-06-26T02:48:14;7.25;;;5.00;;
11247;SDS011;5681;53.316;13.950;2023-06-26T02:50:41;5.25;;;4.60;;
11247;SDS011;5681;53.316;13.950;2023-06-26T02:53:10;6.07;;;5.00;;
11247;SDS011;5681;53.316;13.950;2023-06-26T02:55:37;6.30;;;5.25;;
11247;SDS011;5681;53.316;13.950;2023-06-26T02:58:03;5.25;;;4.75;;
11247;SDS011;5681;53.316;13.950;2023-06-26T03:00:30;6.38;;;4.97;;
11247;SDS011;5681;53.316;13.950;2023-06-26T03:02:56;4.82;;;4.40;;
11247;SDS011;5681;53.316;13.950;2023-06-26T03:05:23;5.47;;;4.95;;
11247;SDS011;5681;53.316;13.950;2023-06-26T03:07:51;5.13;;;4.72;;
11247;SDS011;5681;53.316;13.950;2023-06-26T03:10:17;7.05;;;5.03;;
11247;SDS011;5681;53.316;13.950;2023-06-26T03:12:43;7.05;;;4.93;;
11247;SDS011;5681;53.316;13.950;2023-06-26T03:15:09;7.40;;;5.13;;
11247;SDS011;5681;53.316;13.950;2023-06-26T03:17:36;5.50;;;4.85;;
11247;SDS011;5681;53.316;13.950;2023-06-26T03:20:03;7.72;;;4.95;;
11247;SDS011;5681;53.316;13.950;2023-06-26T03:22:31;5.20;;;4.70;;
11247;SDS011;5681;53.316;13.950;2023-06-26T03:24:59;5.38;;;4.80;;
11247;SDS011;5681;53.316;13.950;2023-06-26T03:27:26;8.90;;;5.40;;
11247;SDS011;5681;53.316;13.950;2023-06-26T03:29:52;5.30;;;4.72;;
11247;SDS011;5681;53.316;13.950;2023-06-26T03:32:18;6.30;;;5.63;;
11247;SDS011;5681;53.316;13.950;2023-06-26T03:34:45;6.55;;;5.18;;
11247;SDS011;5681;53.316;13.950;2023-06-26T03:37:11;7.63;;;5.53;;
11247;SDS011;5681;53.316;13.950;2023-06-26T03:39:37;5.95;;;5.35;;
11247;SDS011;5681;53.316;13.950;2023-06-26T03:42:05;5.88;;;5.30;;
11247;SDS011;5681;53.316;13.950;2023-06-26T03:44:32;6.80;;;4.97;;
11247;SDS011;5681;53.316;13.950;2023-06-26T03:46:59;7.63;;;5.28;;
11247;SDS011;5681;53.316;13.950;2023-06-26T03:49:25;9.48;;;5.80;;
11247;SDS011;5681;53.316;13.950;2023-06-26T03:51:52;7.00;;;5.53;;
11247;SDS011;5681;53.316;13.950;2023-06-26T03:54:18;9.23;;;5.70;;
11247;SDS011;5681;53.316;13.950;2023-06-26T03:56:44;9.68;;;6.40;;
11247;SDS011;5681;53.316;13.950;2023-06-26T03:59:12;5.93;;;5.20;;
11247;SDS011;5681;53.316;13.950;2023-06-26T04:01:38;9.77;;;6.03;;
11247;SDS011;5681;53.316;13.950;2023-06-26T04:04:05;11.30;;;6.50;;
11247;SDS011;5681;53.316;13.950;2023-06-26T04:06:31;12.07;;;6.30;;
11247;SDS011;5681;53.316;13.950;2023-06-26T04:08:58;7.47;;;6.63;;
11247;SDS011;5681;53.316;13.950;2023-06-26T04:11:24;8.65;;;6.78;;
11247;SDS011;5681;53.316;13.950;2023-06-26T04:13:51;10.77;;;7.30;;
11247;SDS011;5681;53.316;13.950;2023-06-26T04:16:18;9.20;;;6.60;;
11247;SDS011;5681;53.316;13.950;2023-06-26T04:18:45;13.18;;;6.55;;
11247;SDS011;5681;53.316;13.950;2023-06-26T04:21:12;9.10;;;6.65;;
11247;SDS011;5681;53.316;13.950;2023-06-26T04:23:39;11.32;;;7.03;;
11247;SDS011;5681;53.316;13.950;2023-06-26T04:26:06;10.50;;;7.43;;
11247;SDS011;5681;53.316;13.950;2023-06-26T04:28:33;11.57;;;7.15;;
11247;SDS011;5681;53.316;13.950;2023-06-26T04:31:00;10.75;;;7.13;;
11247;SDS011;5681;53.316;13.950;2023-06-26T04:33:28;8.88;;;6.53;;
11247;SDS011;5681;53.316;13.950;2023-06-26T04:35:54;11.35;;;7.55;;
11247;SDS011;5681;53.316;13.950;2023-06-26T04:38:20;8.52;;;7.13;;
11247;SDS011;5681;53.316;13.950;2023-06-26T04:40:47;9.15;;;6.75;;
11247;SDS011;5681;53.316;13.950;2023-06-26T04:43:13;9.80;;;7.30;;
11247;SDS011;5681;53.316;13.950;2023-06-26T04:45:40;10.23;;;6.70;;
11247;SDS011;5681;53.316;13.950;2023-06-26T04:48:06;8.68;;;6.80;;
11247;SDS011;5681;53.316;13.950;2023-06-26T04:50:35;7.75;;;6.60;;
11247;SDS011;5681;53.316;13.950;2023-06-26T04:53:01;7.35;;;6.45;;
11247;SDS011;5681;53.316;13.950;2023-06-26T04:55:28;8.32;;;6.30;;
11247;SDS011;5681;53.316;13.950;2023-06-26T04:57:55;10.77;;;5.88;;
11247;SDS011;5681;53.316;13.950;2023-06-26T05:00:21;7.50;;;6.40;;
11247;SDS011;5681;53.316;13.950;2023-06-26T05:02:49;8.48;;;5.28;;
11247;SDS011;5681;53.316;13.950;2023-06-26T05:05:24;10.02;;;6.00;;
11247;SDS011;5681;53.316;13.950;2023-06-26T05:07:52;5.82;;;5.22;;
11247;SDS011;5681;53.316;13.950;2023-06-26T05:10:18;7.25;;;5.63;;
11247;SDS011;5681;53.316;13.950;2023-06-26T05:12:45;6.55;;;5.80;;
11247;SDS011;5681;53.316;13.950;2023-06-26T05:15:11;7.32;;;5.45;;
11247;SDS011;5681;53.316;13.950;2023-06-26T05:17:37;6.28;;;5.47;;
11247;SDS011;5681;53.316;13.950;2023-06-26T05:20:04;6.35;;;5.57;;
11247;SDS011;5681;53.316;13.950;2023-06-26T05:22:31;9.30;;;5.63;;
11247;SDS011;5681;53.316;13.950;2023-06-26T05:25:00;7.53;;;5.60;;
11247;SDS011;5681;53.316;13.950;2023-06-26T05:27:26;6.43;;;5.05;;
11247;SDS011;5681;53.316;13.950;2023-06-26T05:29:53;5.88;;;5.20;;
11247;SDS011;5681;53.316;13.950;2023-06-26T05:32:20;6.22;;;5.40;;
11247;SDS011;5681;53.316;13.950;2023-06-26T05:34:47;9.93;;;5.35;;
11247;SDS011;5681;53.316;13.950;2023-06-26T05:37:14;8.48;;;5.03;;
11247;SDS011;5681;53.316;13.950;2023-06-26T05:39:46;6.35;;;4.70;;
11247;SDS011;5681;53.316;13.950;2023-06-26T05:42:15;5.32;;;4.82;;
11247;SDS011;5681;53.316;13.950;2023-06-26T05:44:42;5.32;;;4.78;;
11247;SDS011;5681;53.316;13.950;2023-06-26T05:47:08;8.82;;;5.30;;
11247;SDS011;5681;53.316;13.950;2023-06-26T05:49:35;14.07;;;5.53;;
11247;SDS011;5681;53.316;13.950;2023-06-26T05:52:01;9.18;;;4.82;;
11247;SDS011;5681;53.316;13.950;2023-06-26T05:54:28;7.60;;;4.60;;
11247;SDS011;5681;53.316;13.950;2023-06-26T05:56:56;7.25;;;5.22;;
11247;SDS011;5681;53.316;13.950;2023-06-26T05:59:25;6.57;;;5.20;;
11247;SDS011;5681;53.316;13.950;2023-06-26T06:01:52;7.38;;;5.10;;
11247;SDS011;5681;53.316;13.950;2023-06-26T06:04:19;7.47;;;5.20;;
11247;SDS011;5681;53.316;13.950;2023-06-26T06:06:45;7.63;;;4.97;;
11247;SDS011;5681;53.316;13.950;2023-06-26T06:09:12;5.63;;;4.75;;
11247;SDS011;5681;53.316;13.950;2023-06-26T06:11:38;5.65;;;4.70;;
11247;SDS011;5681;53.316;13.950;2023-06-26T06:14:04;10.85;;;5.18;;
11247;SDS011;5681;53.316;13.950;2023-06-26T06:16:32;8.00;;;5.10;;
11247;SDS011;5681;53.316;13.950;2023-06-26T06:18:58;7.07;;;4.57;;
11247;SDS011;5681;53.316;13.950;2023-06-26T06:21:25;9.07;;;5.10;;
11247;SDS011;5681;53.316;13.950;2023-06-26T06:23:51;9.23;;;4.93;;
11247;SDS011;5681;53.316;13.950;2023-06-26T06:26:17;8.38;;;5.10;;
11247;SDS011;5681;53.316;13.950;2023-06-26T06:28:43;12.27;;;6.03;;
11247;SDS011;5681;53.316;13.950;2023-06-26T06:31:10;7.82;;;5.22;;
11247;SDS011;5681;53.316;13.950;2023-06-26T06:33:37;9.55;;;6.00;;
11247;SDS011;5681;53.316;13.950;2023-06-26T06:36:04;8.57;;;5.57;;
11247;SDS011;5681;53.316;13.950;2023-06-26T06:38:30;10.98;;;5.80;;
11247;SDS011;5681;53.316;13.950;2023-06-26T06:40:57;10.90;;;5.60;;
11247;SDS011;5681;53.316;13.950;2023-06-26T06:43:23;7.22;;;5.47;;
11247;SDS011;5681;53.316;13.950;2023-06-26T06:45:50;9.45;;;5.28;;
11247;SDS011;5681;53.316;13.950;2023-06-26T06:48:16;6.53;;;5.20;;
11247;SDS011;5681;53.316;13.950;2023-06-26T06:50:44;9.85;;;6.20;;
11247;SDS011;5681;53.316;13.950;2023-06-26T06:53:10;7.50;;;5.60;;
11247;SDS011;5681;53.316;13.950;2023-06-26T06:55:36;7.07;;;5.43;;
11247;SDS011;5681;53.316;13.950;2023-06-26T06:58:02;7.53;;;5.30;;
11247;SDS011;5681;53.316;13.950;2023-06-26T07:00:29;6.22;;;5.47;;
11247;SDS011;5681;53.316;13.950;2023-06-26T07:02:56;6.47;;;5.57;;
11247;SDS011;5681;53.316;13.950;2023-06-26T07:05:25;7.65;;;5.57;;
11247;SDS011;5681;53.316;13.950;2023-06-26T07:07:52;5.45;;;4.95;;
11247;SDS011;5681;53.316;13.950;2023-06-26T07:10:19;5.80;;;5.30;;
11247;SDS011;5681;53.316;13.950;2023-06-26T07:12:45;5.55;;;5.05;;
11247;SDS011;5681;53.316;13.950;2023-06-26T07:15:12;8.27;;;5.15;;
11247;SDS011;5681;53.316;13.950;2023-06-26T07:17:38;6.22;;;5.57;;
11247;SDS011;5681;53.316;13.950;2023-06-26T07:20:05;6.63;;;5.38;;
11247;SDS011;5681;53.316;13.950;2023-06-26T07:22:33;9.77;;;5.18;;
11247;SDS011;5681;53.316;13.950;2023-06-26T07:25:01;8.93;;;5.60;;
11247;SDS011;5681;53.316;13.950;2023-06-26T07:27:28;5.70;;;5.20;;
11247;SDS011;5681;53.316;13.950;2023-06-26T07:29:55;6.10;;;5.50;;
11247;SDS011;5681;53.316;13.950;2023-06-26T07:32:22;5.97;;;5.22;;
11247;SDS011;5681;53.316;13.950;2023-06-26T07:34:48;6.55;;;5.40;;
11247;SDS011;5681;53.316;13.950;2023-06-26T07:37:14;6.47;;;4.85;;
11247;SDS011;5681;53.316;13.950;2023-06-26T07:39:41;9.10;;;5.30;;
11247;SDS011;5681;53.316;13.950;2023-06-26T07:42:08;7.50;;;4.95;;
11247;SDS011;5681;53.316;13.950;2023-06-26T07:44:35;8.77;;;5.80;;
11247;SDS011;5681;53.316;13.950;2023-06-26T07:47:01;8.18;;;5.45;;
11247;SDS011;5681;53.316;13.950;2023-06-26T07:49:27;7.47;;;5.32;;
11247;SDS011;5681;53.316;13.950;2023-06-26T07:51:54;8.25;;;5.05;;
11247;SDS011;5681;53.316;13.950;2023-06-26T07:54:20;9.13;;;5.30;;
11247;SDS011;5681;53.316;13.950;2023-06-26T07:56:53;8.63;;;5.20;;
11247;SDS011;5681;53.316;13.950;2023-06-26T07:59:22;10.90;;;5.10;;
11247;SDS011;5681;53.316;13.950;2023-06-26T08:01:49;10.13;;;5.25;;
11247;SDS011;5681;53.316;13.950;2023-06-26T08:04:17;7.82;;;4.88;;
11247;SDS011;5681;53.316;13.950;2023-06-26T08:06:43;5.63;;;5.13;;
11247;SDS011;5681;53.316;13.950;2023-06-26T08:09:10;5.22;;;4.72;;
11247;SDS011;5681;53.316;13.950;2023-06-26T08:11:37;5.13;;;4.63;;
11247;SDS011;5681;53.316;13.950;2023-06-26T08:14:05;7.85;;;4.43;;
11247;SDS011;5681;53.316;13.950;2023-06-26T08:16:33;5.00;;;4.50;;
11247;SDS011;5681;53.316;13.950;2023-06-26T08:18:59;6.82;;;4.47;;
11247;SDS011;5681;53.316;13.950;2023-06-26T08:21:26;6.32;;;4.47;;
11247;SDS011;5681;53.316;13.950;2023-06-26T08:23:52;4.75;;;4.30;;
11247;SDS011;5681;53.316;13.950;2023-06-26T08:26:18;5.75;;;4.57;;
11247;SDS011;5681;53.316;13.950;2023-06-26T08:28:45;4.47;;;4.07;;
11247;SDS011;5681;53.316;13.950;2023-06-26T08:31:11;4.88;;;4.38;;
11247;SDS011;5681;53.316;13.950;2023-06-26T08:33:39;6.05;;;4.38;;
11247;SDS011;5681;53.316;13.950;2023-06-26T08:36:05;4.70;;;4.07;;
11247;SDS011;5681;53.316;13.950;2023-06-26T08:38:32;5.10;;;4.60;;
11247;SDS011;5681;53.316;13.950;2023-06-26T08:40:58;4.75;;;4.13;;
11247;SDS011;5681;53.316;13.950;2023-06-26T08:43:25;6.22;;;4.47;;
11247;SDS011;5681;53.316;13.950;2023-06-26T08:45:52;6.60;;;4.80;;
11247;SDS011;5681;53.316;13.950;2023-06-26T08:48:18;4.45;;;4.05;;
11247;SDS011;5681;53.316;13.950;2023-06-26T08:50:48;4.93;;;4.43;;
11247;SDS011;5681;53.316;13.950;2023-06-26T08:53:19;6.45;;;4.70;;
11247;SDS011;5681;53.316;13.950;2023-06-26T08:55:47;9.82;;;4.18;;
11247;SDS011;5681;53.316;13.950;2023-06-26T08:58:15;5.53;;;4.18;;
11247;SDS011;5681;53.316;13.950;2023-06-26T09:00:41;4.53;;;4.13;;
11247;SDS011;5681;53.316;13.950;2023-06-26T09:03:07;7.55;;;4.38;;
11247;SDS011;5681;53.316;13.950;2023-06-26T09:05:34;6.80;;;4.15;;
11247;SDS011;5681;53.316;13.950;2023-06-26T09:08:02;4.45;;;4.00;;
11247;SDS011;5681;53.316;13.950;2023-06-26T09:10:29;4.70;;;4.20;;
11247;SDS011;5681;53.316;13.950;2023-06-26T09:12:55;4.38;;;3.97;;
11247;SDS011;5681;53.316;13.950;2023-06-26T09:15:22;4.47;;;4.07;;
11247;SDS011;5681;53.316;13.950;2023-06-26T09:17:48;4.90;;;4.10;;
11247;SDS011;5681;53.316;13.950;2023-06-26T09:20:15;4.72;;;4.32;;
11247;SDS011;5681;53.316;13.950;2023-06-26T09:22:42;6.55;;;4.45;;
11247;SDS011;5681;53.316;13.950;2023-06-26T09:25:10;4.78;;;4.32;;
11247;SDS011;5681;53.316;13.950;2023-06-26T09:27:37;4.85;;;4.13;;
11247;SDS011;5681;53.316;13.950;2023-06-26T09:30:03;5.68;;;4.30;;
11247;SDS011;5681;53.316;13.950;2023-06-26T09:32:33;5.95;;;3.80;;
11247;SDS011;5681;53.316;13.950;2023-06-26T09:35:00;5.18;;;4.45;;
11247;SDS011;5681;53.316;13.950;2023-06-26T09:37:28;4.53;;;4.00;;
11247;SDS011;5681;53.316;13.950;2023-06-26T09:39:54;6.95;;;4.30;;
11247;SDS011;5681;53.316;13.950;2023-06-26T09:42:22;6.38;;;4.10;;
11247;SDS011;5681;53.316;13.950;2023-06-26T09:44:49;6.10;;;4.07;;
11247;SDS011;5681;53.316;13.950;2023-06-26T09:47:16;3.80;;;3.50;;
11247;SDS011;5681;53.316;13.950;2023-06-26T09:49:44;5.32;;;4.50;;
11247;SDS011;5681;53.316;13.950;2023-06-26T09:52:10;6.47;;;4.80;;
11247;SDS011;5681;53.316;13.950;2023-06-26T09:54:40;4.63;;;4.20;;
11247;SDS011;5681;53.316;13.950;2023-06-26T09:57:08;5.00;;;4.15;;
11247;SDS011;5681;53.316;13.950;2023-06-26T09:59:36;5.85;;;4.20;;
11247;SDS011;5681;53.316;13.950;2023-06-26T10:02:03;4.20;;;3.90;;
11247;SDS011;5681;53.316;13.950;2023-06-26T10:04:30;5.97;;;4.57;;
11247;SDS011;5681;53.316;13.950;2023-06-26T10:06:56;4.55;;;4.15;;
11247;SDS011;5681;53.316;13.950;2023-06-26T10:09:24;4.30;;;3.95;;
11247;SDS011;5681;53.316;13.950;2023-06-26T10:11:51;4.22;;;3.92;;
11247;SDS011;5681;53.316;13.950;2023-06-26T10:14:20;4.90;;;3.88;;
11247;SDS011;5681;53.316;13.950;2023-06-26T10:16:49;6.43;;;3.97;;
11247;SDS011;5681;53.316;13.950;2023-06-26T10:19:16;5.13;;;3.90;;
11247;SDS011;5681;53.316;13.950;2023-06-26T10:21:49;4.50;;;4.10;;
11247;SDS011;5681;53.316;13.950;2023-06-26T10:24:16;4.28;;;3.88;;
11247;SDS011;5681;53.316;13.950;2023-06-26T10:26:44;4.55;;;4.07;;
11247;SDS011;5681;53.316;13.950;2023-06-26T10:29:11;5.90;;;4.20;;
11247;SDS011;5681;53.316;13.950;2023-06-26T10:31:38;8.98;;;4.07;;
11247;SDS011;5681;53.316;13.950;2023-06-26T10:34:08;4.72;;;3.92;;
11247;SDS011;5681;53.316;13.950;2023-06-26T10:36:35;4.68;;;4.28;;
11247;SDS011;5681;53.316;13.950;2023-06-26T10:39:02;4.60;;;3.97;;
11247;SDS011;5681;53.316;13.950;2023-06-26T10:41:35;4.45;;;3.88;;
11247;SDS011;5681;53.316;13.950;2023-06-26T10:44:06;3.90;;;3.53;;
11247;SDS011;5681;53.316;13.950;2023-06-26T10:46:33;3.97;;;3.65;;
11247;SDS011;5681;53.316;13.950;2023-06-26T10:49:00;4.00;;;3.55;;
11247;SDS011;5681;53.316;13.950;2023-06-26T10:51:28;7.30;;;3.30;;
11247;SDS011;5681;53.316;13.950;2023-06-26T10:53:54;4.05;;;3.45;;
11247;SDS011;5681;53.316;13.950;2023-06-26T10:56:21;4.82;;;3.63;;
11247;SDS011;5681;53.316;13.950;2023-06-26T10:59:17;4.82;;;3.58;;
11247;SDS011;5681;53.316;13.950;2023-06-26T11:01:44;3.85;;;3.45;;
11247;SDS011;5681;53.316;13.950;2023-06-26T11:04:12;4.70;;;3.72;;
11247;SDS011;5681;53.316;13.950;2023-06-26T11:06:44;4.50;;;4.10;;
11247;SDS011;5681;53.316;13.950;2023-06-26T11:09:13;4.05;;;3.53;;
11247;SDS011;5681;53.316;13.950;2023-06-26T11:11:59;6.18;;;3.72;;
11247;SDS011;5681;53.316;13.950;2023-06-26T11:14:30;7.10;;;4.13;;
11247;SDS011;5681;53.316;13.950;2023-06-26T11:16:57;8.13;;;3.75;;
11247;SDS011;5681;53.316;13.950;2023-06-26T11:19:25;5.00;;;3.95;;
11247;SDS011;5681;53.316;13.950;2023-06-26T11:21:53;5.25;;;3.75;;
11247;SDS011;5681;53.316;13.950;2023-06-26T11:24:24;4.43;;;4.03;;
11247;SDS011;5681;53.316;13.950;2023-06-26T11:26:51;4.20;;;3.80;;
11247;SDS011;5681;53.316;13.950;2023-06-26T11:29:17;5.80;;;3.90;;
11247;SDS011;5681;53.316;13.950;2023-06-26T11:31:43;5.90;;;3.70;;
11247;SDS011;5681;53.316;13.950;2023-06-26T11:34:10;4.63;;;3.85;;
11247;SDS011;5681;53.316;13.950;2023-06-26T11:36:37;5.15;;;3.60;;
11247;SDS011;5681;53.316;13.950;2023-06-26T11:39:06;4.32;;;3.58;;
11247;SDS011;5681;53.316;13.950;2023-06-26T11:41:33;5.30;;;3.90;;
11247;SDS011;5681;53.316;13.950;2023-06-26T11:44:00;5.93;;;3.47;;
11247;SDS011;5681;53.316;13.950;2023-06-26T11:46:26;4.18;;;3.78;;
11247;SDS011;5681;53.316;13.950;2023-06-26T11:48:53;4.95;;;3.60;;
11247;SDS011;5681;53.316;13.950;2023-06-26T11:51:20;6.35;;;3.63;;
11247;SDS011;5681;53.316;13.950;2023-06-26T11:53:47;5.10;;;3.50;;
11247;SDS011;5681;53.316;13.950;2023-06-26T11:56:15;5.60;;;3.50;;
11247;SDS011;5681;53.316;13.950;2023-06-26T11:58:58;4.70;;;3.60;;
11247;SDS011;5681;53.316;13.950;2023-06-26T12:01:26;5.07;;;3.72;;
11247;SDS011;5681;53.316;13.950;2023-06-26T12:03:54;4.43;;;3.53;;
11247;SDS011;5681;53.316;13.950;2023-06-26T12:06:25;7.15;;;3.97;;
11247;SDS011;5681;53.316;13.950;2023-06-26T12:08:51;5.93;;;3.60;;
11247;SDS011;5681;53.316;13.950;2023-06-26T12:11:19;4.07;;;3.50;;
11247;SDS011;5681;53.316;13.950;2023-06-26T12:13:46;8.80;;;3.53;;
11247;SDS011;5681;53.316;13.950;2023-06-26T12:16:13;4.13;;;3.75;;
11247;SDS011;5681;53.316;13.950;2023-06-26T12:18:40;6.10;;;3.55;;
11247;SDS011;5681;53.316;13.950;2023-06-26T12:21:06;6.55;;;3.92;;
11247;SDS011;5681;53.316;13.950;2023-06-26T12:23:33;6.22;;;3.67;;
11247;SDS011;5681;53.316;13.950;2023-06-26T12:26:16;7.15;;;3.70;;
11247;SDS011;5681;53.316;13.950;2023-06-26T12:28:45;8.13;;;3.63;;
11247;SDS011;5681;53.316;13.950;2023-06-26T12:31:12;4.18;;;3.78;;
11247;SDS011;5681;53.316;13.950;2023-06-26T12:33:39;5.32;;;3.80;;
11247;SDS011;5681;53.316;13.950;2023-06-26T12:36:09;4.15;;;3.75;;
11247;SDS011;5681;53.316;13.950;2023-06-26T12:38:36;5.70;;;4.10;;
11247;SDS011;5681;53.316;13.950;2023-06-26T12:41:03;7.05;;;3.80;;
11247;SDS011;5681;53.316;13.950;2023-06-26T12:43:29;5.15;;;3.40;;
11247;SDS011;5681;53.316;13.950;2023-06-26T12:45:57;4.30;;;3.45;;
11247;SDS011;5681;53.316;13.950;2023-06-26T12:48:35;5.22;;;3.50;;
11247;SDS011;5681;53.316;13.950;2023-06-26T12:51:07;4.13;;;3.50;;
11247;SDS011;5681;53.316;13.950;2023-06-26T12:53:34;6.65;;;3.60;;
11247;SDS011;5681;53.316;13.950;2023-06-26T12:56:00;5.65;;;3.40;;
11247;SDS011;5681;53.316;13.950;2023-06-26T12:58:27;3.50;;;3.20;;
11247;SDS011;5681;53.316;13.950;2023-06-26T13:00:53;8.02;;;3.75;;
11247;SDS011;5681;53.316;13.950;2023-06-26T13:03:23;4.35;;;3.30;;
11247;SDS011;5681;53.316;13.950;2023-06-26T13:05:50;5.07;;;3.85;;
11247;SDS011;5681;53.316;13.950;2023-06-26T13:08:16;3.72;;;3.30;;
11247;SDS011;5681;53.316;13.950;2023-06-26T13:10:44;4.28;;;3.88;;
11247;SDS011;5681;53.316;13.950;2023-06-26T13:13:10;6.30;;;3.83;;
11247;SDS011;5681;53.316;13.950;2023-06-26T13:15:37;4.28;;;3.58;;
11247;SDS011;5681;53.316;13.950;2023-06-26T13:18:03;4.55;;;3.78;;
11247;SDS011;5681;53.316;13.950;2023-06-26T13:20:31;6.18;;;3.58;;
11247;SDS011;5681;53.316;13.950;2023-06-26T13:22:57;4.03;;;3.60;;
11247;SDS011;5681;53.316;13.950;2023-06-26T13:25:24;7.03;;;3.70;;
11247;SDS011;5681;53.316;13.950;2023-06-26T13:27:50;4.07;;;3.60;;
11247;SDS011;5681;53.316;13.950;2023-06-26T13:30:16;4.78;;;3.72;;
11247;SDS011;5681;53.316;13.950;2023-06-26T13:32:43;4.82;;;3.30;;
11247;SDS011;5681;53.316;13.950;2023-06-26T13:35:09;5.35;;;3.40;;
11247;SDS011;5681;53.316;13.950;2023-06-26T13:37:37;4.00;;;3.70;;
11247;SDS011;5681;53.316;13.950;2023-06-26T13:40:04;3.75;;;3.38;;
11247;SDS011;5681;53.316;13.950;2023-06-26T13:42:32;5.18;;;3.70;;
11247;SDS011;5681;53.316;13.950;2023-06-26T13:44:58;5.85;;;3.60;;
11247;SDS011;5681;53.316;13.950;2023-06-26T13:47:24;9.23;;;3.58;;
11247;SDS011;5681;53.316;13.950;2023-06-26T13:49:51;5.28;;;3.78;;
11247;SDS011;5681;53.316;13.950;2023-06-26T13:52:17;4.00;;;3.60;;
11247;SDS011;5681;53.316;13.950;2023-06-26T13:54:45;4.43;;;3.75;;
11247;SDS011;5681;53.316;13.950;2023-06-26T13:57:11;3.60;;;3.30;;
11247;SDS011;5681;53.316;13.950;2023-06-26T13:59:38;4.15;;;3.75;;
11247;SDS011;5681;53.316;13.950;2023-06-26T14:02:05;3.83;;;3.53;;
11247;SDS011;5681;53.316;13.950;2023-06-26T14:04:32;4.72;;;3.42;;
11247;SDS011;5681;53.316;13.950;2023-06-26T14:06:58;3.92;;;3.53;;
11247;SDS011;5681;53.316;13.950;2023-06-26T14:09:24;6.75;;;3.88;;
11247;SDS011;5681;53.316;13.950;2023-06-26T14:11:52;5.22;;;3.75;;
11247;SDS011;5681;53.316;13.950;2023-06-26T14:14:18;3.90;;;3.60;;
11247;SDS011;5681;53.316;13.950;2023-06-26T14:16:45;4.45;;;3.65;;
11247;SDS011;5681;53.316;13.950;2023-06-26T14:19:12;3.97;;;3.67;;
11247;SDS011;5681;53.316;13.950;2023-06-26T14:21:40;6.75;;;3.67;;
11247;SDS011;5681;53.316;13.950;2023-06-26T14:24:06;6.72;;;3.88;;
11247;SDS011;5681;53.316;13.950;2023-06-26T14:26:32;7.30;;;3.90;;
11247;SDS011;5681;53.316;13.950;2023-06-26T14:29:00;5.18;;;3.67;;
11247;SDS011;5681;53.316;13.950;2023-06-26T14:31:27;12.95;;;4.03;;
11247;SDS011;5681;53.316;13.950;2023-06-26T14:33:53;36.78;;;4.38;;
11247;SDS011;5681;53.316;13.950;2023-06-26T14:36:19;25.42;;;3.75;;
11247;SDS011;5681;53.316;13.950;2023-06-26T14:38:46;19.45;;;3.15;;
11247;SDS011;5681;53.316;13.950;2023-06-26T14:41:12;17.23;;;2.95;;
11247;SDS011;5681;53.316;13.950;2023-06-26T14:43:38;26.67;;;4.68;;
11247;SDS011;5681;53.316;13.950;2023-06-26T14:46:06;28.70;;;4.60;;